GB-0374 weather

Viewfield Airstrip
Scotland, United Kingdom

Public forecast

Using degrees Celsius for public forecast. Weather courtesy of forecast.io.

Closest aviation weather report (METAR) to Viewfield Airstrip

Closest report is RAF Lossiemouth, 5.4 nm (10.0 km) WNW. Retrieved 2020/05/26 18:50 UTC (1 hour ago):

EGQS 261850Z 27013KT CAVOK 15/05 Q1035 RMK BLU

Closest aviation forecast (TAF) to Viewfield Airstrip

Closest forecast is RAF Lossiemouth, 5.4 nm (10.0 km) WNW. Retrieved 2020/05/26 21:36 UTC (0 seconds ago):

TAF TAF EGQS 261921Z 2621/2715 25010KT 9999 FEW040